sensor_id;sensor_type;location;lat;lon;timestamp;pressure;altitude;pressure_sealevel;temperature
14784;BMP180;7483;50.498;12.138;2022-12-18T00:00:07;98043.00;;;-11.10
14784;BMP180;7483;50.498;12.138;2022-12-18T00:02:44;98018.00;;;-11.00
14784;BMP180;7483;50.498;12.138;2022-12-18T00:05:12;98012.00;;;-11.10
14784;BMP180;7483;50.498;12.138;2022-12-18T00:07:40;98021.00;;;-11.20
14784;BMP180;7483;50.498;12.138;2022-12-18T00:10:10;97969.00;;;-11.20
14784;BMP180;7483;50.498;12.138;2022-12-18T00:12:41;98010.00;;;-11.10
14784;BMP180;7483;50.498;12.138;2022-12-18T00:15:09;98009.00;;;-11.20
14784;BMP180;7483;50.498;12.138;2022-12-18T00:17:37;98016.00;;;-11.10
14784;BMP180;7483;50.498;12.138;2022-12-18T00:20:07;97988.00;;;-11.10
14784;BMP180;7483;50.498;12.138;2022-12-18T00:22:35;97986.00;;;-11.10
14784;BMP180;7483;50.498;12.138;2022-12-18T00:25:04;97980.00;;;-11.10
14784;BMP180;7483;50.498;12.138;2022-12-18T00:27:34;97975.00;;;-11.10
14784;BMP180;7483;50.498;12.138;2022-12-18T00:30:03;97995.00;;;-11.00
14784;BMP180;7483;50.498;12.138;2022-12-18T00:32:32;98028.00;;;-11.00
14784;BMP180;7483;50.498;12.138;2022-12-18T00:35:02;98012.00;;;-11.00
14784;BMP180;7483;50.498;12.138;2022-12-18T00:37:30;98025.00;;;-11.00
14784;BMP180;7483;50.498;12.138;2022-12-18T00:39:58;98025.00;;;-10.90
14784;BMP180;7483;50.498;12.138;2022-12-18T00:42:28;98033.00;;;-10.90
14784;BMP180;7483;50.498;12.138;2022-12-18T00:45:11;97542.00;;;-11.10
14784;BMP180;7483;50.498;12.138;2022-12-18T00:47:40;97571.00;;;-11.00
14784;BMP180;7483;50.498;12.138;2022-12-18T00:50:09;97534.00;;;-11.10
14784;BMP180;7483;50.498;12.138;2022-12-18T00:52:40;97511.00;;;-11.20
14784;BMP180;7483;50.498;12.138;2022-12-18T00:55:10;97520.00;;;-11.50
14784;BMP180;7483;50.498;12.138;2022-12-18T00:57:38;97525.00;;;-11.60
14784;BMP180;7483;50.498;12.138;2022-12-18T01:00:12;97991.00;;;-11.40
14784;BMP180;7483;50.498;12.138;2022-12-18T01:02:41;97562.00;;;-11.60
14784;BMP180;7483;50.498;12.138;2022-12-18T01:05:12;97437.00;;;-11.70
14784;BMP180;7483;50.498;12.138;2022-12-18T01:07:40;97539.00;;;-11.60
14784;BMP180;7483;50.498;12.138;2022-12-18T01:10:12;98018.00;;;-11.40
14784;BMP180;7483;50.498;12.138;2022-12-18T01:12:42;98033.00;;;-11.60
14784;BMP180;7483;50.498;12.138;2022-12-18T01:15:14;98035.00;;;-11.80
14784;BMP180;7483;50.498;12.138;2022-12-18T01:17:43;98035.00;;;-12.10
14784;BMP180;7483;50.498;12.138;2022-12-18T01:20:12;98045.00;;;-11.60
14784;BMP180;7483;50.498;12.138;2022-12-18T01:22:41;98061.00;;;-11.50
14784;BMP180;7483;50.498;12.138;2022-12-18T01:25:09;98049.00;;;-11.60
14784;BMP180;7483;50.498;12.138;2022-12-18T01:27:37;98051.00;;;-11.60
14784;BMP180;7483;50.498;12.138;2022-12-18T01:30:06;98055.00;;;-11.50
14784;BMP180;7483;50.498;12.138;2022-12-18T01:32:36;98044.00;;;-11.50
14784;BMP180;7483;50.498;12.138;2022-12-18T01:35:06;98055.00;;;-11.40
14784;BMP180;7483;50.498;12.138;2022-12-18T01:37:34;98065.00;;;-11.50
14784;BMP180;7483;50.498;12.138;2022-12-18T01:40:03;98065.00;;;-11.50
14784;BMP180;7483;50.498;12.138;2022-12-18T01:42:31;98075.00;;;-11.60
14784;BMP180;7483;50.498;12.138;2022-12-18T01:45:08;98054.00;;;-11.50
14784;BMP180;7483;50.498;12.138;2022-12-18T01:47:53;98105.00;;;-11.50
14784;BMP180;7483;50.498;12.138;2022-12-18T01:50:25;98082.00;;;-11.70
14784;BMP180;7483;50.498;12.138;2022-12-18T01:52:58;98044.00;;;-11.90
14784;BMP180;7483;50.498;12.138;2022-12-18T01:55:31;98055.00;;;-11.80
14784;BMP180;7483;50.498;12.138;2022-12-18T01:58:00;98067.00;;;-11.80
14784;BMP180;7483;50.498;12.138;2022-12-18T02:00:29;97958.00;;;-11.70
14784;BMP180;7483;50.498;12.138;2022-12-18T02:02:58;98061.00;;;-11.50
14784;BMP180;7483;50.498;12.138;2022-12-18T02:05:42;98061.00;;;-11.40
14784;BMP180;7483;50.498;12.138;2022-12-18T02:08:25;98062.00;;;-11.30
14784;BMP180;7483;50.498;12.138;2022-12-18T02:11:05;98062.00;;;-11.50
14784;BMP180;7483;50.498;12.138;2022-12-18T02:13:43;98081.00;;;-11.80
14784;BMP180;7483;50.498;12.138;2022-12-18T02:16:24;98060.00;;;-12.00
14784;BMP180;7483;50.498;12.138;2022-12-18T02:19:07;98042.00;;;-12.00
14784;BMP180;7483;50.498;12.138;2022-12-18T02:21:54;98046.00;;;-12.10
14784;BMP180;7483;50.498;12.138;2022-12-18T02:24:35;98063.00;;;-12.20
14784;BMP180;7483;50.498;12.138;2022-12-18T02:27:09;98050.00;;;-12.20
14784;BMP180;7483;50.498;12.138;2022-12-18T02:29:43;98068.00;;;-12.40
14784;BMP180;7483;50.498;12.138;2022-12-18T02:32:27;98043.00;;;-12.40
14784;BMP180;7483;50.498;12.138;2022-12-18T02:34:58;98030.00;;;-12.30
14784;BMP180;7483;50.498;12.138;2022-12-18T02:37:31;98044.00;;;-12.30
14784;BMP180;7483;50.498;12.138;2022-12-18T02:40:05;98048.00;;;-12.10
14784;BMP180;7483;50.498;12.138;2022-12-18T02:42:37;98042.00;;;-12.20
14784;BMP180;7483;50.498;12.138;2022-12-18T02:45:08;98014.00;;;-12.30
14784;BMP180;7483;50.498;12.138;2022-12-18T02:47:40;98042.00;;;-12.30
14784;BMP180;7483;50.498;12.138;2022-12-18T02:50:22;98024.00;;;-12.60
14784;BMP180;7483;50.498;12.138;2022-12-18T02:53:09;98043.00;;;-12.40
14784;BMP180;7483;50.498;12.138;2022-12-18T02:55:51;98032.00;;;-12.40
14784;BMP180;7483;50.498;12.138;2022-12-18T02:58:30;98056.00;;;-12.30
14784;BMP180;7483;50.498;12.138;2022-12-18T03:01:15;98035.00;;;-12.40
14784;BMP180;7483;50.498;12.138;2022-12-18T03:03:48;98026.00;;;-12.50
14784;BMP180;7483;50.498;12.138;2022-12-18T03:06:23;98034.00;;;-12.50
14784;BMP180;7483;50.498;12.138;2022-12-18T03:08:58;97970.00;;;-12.70
14784;BMP180;7483;50.498;12.138;2022-12-18T03:11:33;97977.00;;;-12.80
14784;BMP180;7483;50.498;12.138;2022-12-18T03:14:20;97991.00;;;-12.90
14784;BMP180;7483;50.498;12.138;2022-12-18T03:16:54;98011.00;;;-12.80
14784;BMP180;7483;50.498;12.138;2022-12-18T03:19:29;98052.00;;;-12.90
14784;BMP180;7483;50.498;12.138;2022-12-18T03:22:04;98012.00;;;-13.10
14784;BMP180;7483;50.498;12.138;2022-12-18T03:24:45;98011.00;;;-13.00
14784;BMP180;7483;50.498;12.138;2022-12-18T03:27:20;98015.00;;;-12.80
14784;BMP180;7483;50.498;12.138;2022-12-18T03:30:01;98015.00;;;-12.70
14784;BMP180;7483;50.498;12.138;2022-12-18T03:32:41;98000.00;;;-12.60
14784;BMP180;7483;50.498;12.138;2022-12-18T03:35:20;98008.00;;;-12.60
14784;BMP180;7483;50.498;12.138;2022-12-18T03:37:50;97878.00;;;-12.90
14784;BMP180;7483;50.498;12.138;2022-12-18T03:40:23;98016.00;;;-12.40
14784;BMP180;7483;50.498;12.138;2022-12-18T03:43:03;98000.00;;;-12.70
14784;BMP180;7483;50.498;12.138;2022-12-18T03:45:41;98007.00;;;-12.70
14784;BMP180;7483;50.498;12.138;2022-12-18T03:48:18;98037.00;;;-12.60
14784;BMP180;7483;50.498;12.138;2022-12-18T03:50:53;98012.00;;;-12.60
14784;BMP180;7483;50.498;12.138;2022-12-18T03:53:33;98024.00;;;-12.50
14784;BMP180;7483;50.498;12.138;2022-12-18T03:56:04;98025.00;;;-12.40
14784;BMP180;7483;50.498;12.138;2022-12-18T03:58:40;98030.00;;;-12.40
14784;BMP180;7483;50.498;12.138;2022-12-18T04:01:23;98012.00;;;-12.40
14784;BMP180;7483;50.498;12.138;2022-12-18T04:03:54;98015.00;;;-12.60
14784;BMP180;7483;50.498;12.138;2022-12-18T04:06:26;98026.00;;;-12.60
14784;BMP180;7483;50.498;12.138;2022-12-18T04:08:56;98033.00;;;-12.70
14784;BMP180;7483;50.498;12.138;2022-12-18T04:11:26;98056.00;;;-12.70
14784;BMP180;7483;50.498;12.138;2022-12-18T04:13:56;98047.00;;;-12.70
14784;BMP180;7483;50.498;12.138;2022-12-18T04:16:27;98057.00;;;-12.70
14784;BMP180;7483;50.498;12.138;2022-12-18T04:18:59;98034.00;;;-12.70
14784;BMP180;7483;50.498;12.138;2022-12-18T04:21:31;98058.00;;;-12.70
14784;BMP180;7483;50.498;12.138;2022-12-18T04:24:00;98044.00;;;-12.80
14784;BMP180;7483;50.498;12.138;2022-12-18T04:26:28;98044.00;;;-12.80
14784;BMP180;7483;50.498;12.138;2022-12-18T04:29:11;98060.00;;;-12.60
14784;BMP180;7483;50.498;12.138;2022-12-18T04:31:41;98054.00;;;-12.40
14784;BMP180;7483;50.498;12.138;2022-12-18T04:34:09;98084.00;;;-12.20
14784;BMP180;7483;50.498;12.138;2022-12-18T04:36:43;98062.00;;;-12.30
14784;BMP180;7483;50.498;12.138;2022-12-18T04:39:13;98045.00;;;-12.70
14784;BMP180;7483;50.498;12.138;2022-12-18T04:41:41;98049.00;;;-12.70
14784;BMP180;7483;50.498;12.138;2022-12-18T04:44:12;98062.00;;;-12.70
14784;BMP180;7483;50.498;12.138;2022-12-18T04:46:42;98048.00;;;-12.70
14784;BMP180;7483;50.498;12.138;2022-12-18T04:49:10;97955.00;;;-12.80
14784;BMP180;7483;50.498;12.138;2022-12-18T04:51:39;98040.00;;;-12.80
14784;BMP180;7483;50.498;12.138;2022-12-18T04:54:07;98051.00;;;-12.90
14784;BMP180;7483;50.498;12.138;2022-12-18T04:56:36;98051.00;;;-12.80
14784;BMP180;7483;50.498;12.138;2022-12-18T04:59:04;98053.00;;;-12.90
14784;BMP180;7483;50.498;12.138;2022-12-18T05:01:33;98049.00;;;-13.00
14784;BMP180;7483;50.498;12.138;2022-12-18T05:04:04;98038.00;;;-12.90
14784;BMP180;7483;50.498;12.138;2022-12-18T05:06:32;98028.00;;;-13.10
14784;BMP180;7483;50.498;12.138;2022-12-18T05:09:00;98037.00;;;-13.00
14784;BMP180;7483;50.498;12.138;2022-12-18T05:11:29;98051.00;;;-12.70
14784;BMP180;7483;50.498;12.138;2022-12-18T05:13:57;98049.00;;;-12.80
14784;BMP180;7483;50.498;12.138;2022-12-18T05:16:25;98051.00;;;-12.90
14784;BMP180;7483;50.498;12.138;2022-12-18T05:18:53;98052.00;;;-13.00
14784;BMP180;7483;50.498;12.138;2022-12-18T05:21:22;98059.00;;;-12.90
14784;BMP180;7483;50.498;12.138;2022-12-18T05:23:50;98059.00;;;-12.90
14784;BMP180;7483;50.498;12.138;2022-12-18T05:26:18;98063.00;;;-12.80
14784;BMP180;7483;50.498;12.138;2022-12-18T05:28:47;98075.00;;;-12.90
14784;BMP180;7483;50.498;12.138;2022-12-18T05:31:15;98054.00;;;-13.00
14784;BMP180;7483;50.498;12.138;2022-12-18T05:33:43;98060.00;;;-13.10
14784;BMP180;7483;50.498;12.138;2022-12-18T05:36:11;98054.00;;;-13.10
14784;BMP180;7483;50.498;12.138;2022-12-18T05:38:41;98043.00;;;-13.00
14784;BMP180;7483;50.498;12.138;2022-12-18T05:41:09;97921.00;;;-13.00
14784;BMP180;7483;50.498;12.138;2022-12-18T05:43:39;98105.00;;;-12.80
14784;BMP180;7483;50.498;12.138;2022-12-18T05:46:12;98083.00;;;-12.80
14784;BMP180;7483;50.498;12.138;2022-12-18T05:48:41;98074.00;;;-12.70
14784;BMP180;7483;50.498;12.138;2022-12-18T05:51:11;98087.00;;;-12.80
14784;BMP180;7483;50.498;12.138;2022-12-18T05:53:43;98074.00;;;-12.70
14784;BMP180;7483;50.498;12.138;2022-12-18T05:56:15;98093.00;;;-12.60
14784;BMP180;7483;50.498;12.138;2022-12-18T05:58:43;98093.00;;;-12.50
14784;BMP180;7483;50.498;12.138;2022-12-18T06:01:15;98123.00;;;-12.40
14784;BMP180;7483;50.498;12.138;2022-12-18T06:03:44;98094.00;;;-12.50
14784;BMP180;7483;50.498;12.138;2022-12-18T06:06:14;98106.00;;;-12.50
14784;BMP180;7483;50.498;12.138;2022-12-18T06:08:44;98088.00;;;-12.50
14784;BMP180;7483;50.498;12.138;2022-12-18T06:11:15;98078.00;;;-12.40
14784;BMP180;7483;50.498;12.138;2022-12-18T06:13:43;98094.00;;;-12.40
14784;BMP180;7483;50.498;12.138;2022-12-18T06:16:11;98078.00;;;-12.50
14784;BMP180;7483;50.498;12.138;2022-12-18T06:18:40;98107.00;;;-12.50
14784;BMP180;7483;50.498;12.138;2022-12-18T06:21:08;98091.00;;;-12.50
14784;BMP180;7483;50.498;12.138;2022-12-18T06:23:36;98101.00;;;-12.40
14784;BMP180;7483;50.498;12.138;2022-12-18T06:26:09;98090.00;;;-12.40
14784;BMP180;7483;50.498;12.138;2022-12-18T06:28:38;98115.00;;;-12.40
14784;BMP180;7483;50.498;12.138;2022-12-18T06:31:07;98106.00;;;-13.00
14784;BMP180;7483;50.498;12.138;2022-12-18T06:33:36;98111.00;;;-12.70
14784;BMP180;7483;50.498;12.138;2022-12-18T06:36:09;98127.00;;;-12.80
14784;BMP180;7483;50.498;12.138;2022-12-18T06:38:39;98113.00;;;-12.80
14784;BMP180;7483;50.498;12.138;2022-12-18T06:41:11;98080.00;;;-12.90
14784;BMP180;7483;50.498;12.138;2022-12-18T06:43:40;98009.00;;;-13.00
14784;BMP180;7483;50.498;12.138;2022-12-18T06:46:09;98083.00;;;-13.10
14784;BMP180;7483;50.498;12.138;2022-12-18T06:48:38;98078.00;;;-13.10
14784;BMP180;7483;50.498;12.138;2022-12-18T06:51:06;98090.00;;;-13.10
14784;BMP180;7483;50.498;12.138;2022-12-18T06:53:34;98076.00;;;-13.20
14784;BMP180;7483;50.498;12.138;2022-12-18T06:56:05;98060.00;;;-13.10
14784;BMP180;7483;50.498;12.138;2022-12-18T06:58:38;98090.00;;;-13.10
14784;BMP180;7483;50.498;12.138;2022-12-18T07:01:10;98182.00;;;-13.20
14784;BMP180;7483;50.498;12.138;2022-12-18T07:03:39;97886.00;;;-13.20
14784;BMP180;7483;50.498;12.138;2022-12-18T07:06:14;98040.00;;;-13.20
14784;BMP180;7483;50.498;12.138;2022-12-18T07:08:43;98044.00;;;-13.20
14784;BMP180;7483;50.498;12.138;2022-12-18T07:11:11;98042.00;;;-13.10
14784;BMP180;7483;50.498;12.138;2022-12-18T07:13:41;98057.00;;;-13.00
14784;BMP180;7483;50.498;12.138;2022-12-18T07:16:12;98054.00;;;-13.20
14784;BMP180;7483;50.498;12.138;2022-12-18T07:18:50;98065.00;;;-13.20
14784;BMP180;7483;50.498;12.138;2022-12-18T07:21:19;98079.00;;;-13.00
14784;BMP180;7483;50.498;12.138;2022-12-18T07:23:48;98086.00;;;-12.90
14784;BMP180;7483;50.498;12.138;2022-12-18T07:26:18;97962.00;;;-12.90
14784;BMP180;7483;50.498;12.138;2022-12-18T07:28:49;98080.00;;;-12.90
14784;BMP180;7483;50.498;12.138;2022-12-18T07:31:20;98094.00;;;-12.90
14784;BMP180;7483;50.498;12.138;2022-12-18T07:33:50;98089.00;;;-13.00
14784;BMP180;7483;50.498;12.138;2022-12-18T07:36:19;98095.00;;;-13.10
14784;BMP180;7483;50.498;12.138;2022-12-18T07:38:48;98105.00;;;-13.10
14784;BMP180;7483;50.498;12.138;2022-12-18T07:41:17;98110.00;;;-13.00
14784;BMP180;7483;50.498;12.138;2022-12-18T07:43:45;98130.00;;;-12.90
14784;BMP180;7483;50.498;12.138;2022-12-18T07:46:16;98125.00;;;-12.80
14784;BMP180;7483;50.498;12.138;2022-12-18T07:48:45;98114.00;;;-12.70
14784;BMP180;7483;50.498;12.138;2022-12-18T07:51:17;98134.00;;;-12.70
14784;BMP180;7483;50.498;12.138;2022-12-18T07:53:46;98109.00;;;-12.80
14784;BMP180;7483;50.498;12.138;2022-12-18T07:56:19;98085.00;;;-12.90
14784;BMP180;7483;50.498;12.138;2022-12-18T07:58:54;98087.00;;;-12.80
14784;BMP180;7483;50.498;12.138;2022-12-18T08:01:23;98087.00;;;-12.70
14784;BMP180;7483;50.498;12.138;2022-12-18T08:03:52;98100.00;;;-12.50
14784;BMP180;7483;50.498;12.138;2022-12-18T08:06:20;98117.00;;;-12.30
14784;BMP180;7483;50.498;12.138;2022-12-18T08:08:52;98132.00;;;-12.10
14784;BMP180;7483;50.498;12.138;2022-12-18T08:11:21;98141.00;;;-11.90
14784;BMP180;7483;50.498;12.138;2022-12-18T08:13:50;98171.00;;;-11.80
14784;BMP180;7483;50.498;12.138;2022-12-18T08:16:20;98140.00;;;-11.70
14784;BMP180;7483;50.498;12.138;2022-12-18T08:18:52;98140.00;;;-11.60
14784;BMP180;7483;50.498;12.138;2022-12-18T08:21:23;98142.00;;;-11.60
14784;BMP180;7483;50.498;12.138;2022-12-18T08:23:54;98155.00;;;-11.50
14784;BMP180;7483;50.498;12.138;2022-12-18T08:26:24;98156.00;;;-11.50
14784;BMP180;7483;50.498;12.138;2022-12-18T08:28:54;98147.00;;;-11.30
14784;BMP180;7483;50.498;12.138;2022-12-18T08:31:24;98162.00;;;-11.20
14784;BMP180;7483;50.498;12.138;2022-12-18T08:33:53;98168.00;;;-11.20
14784;BMP180;7483;50.498;12.138;2022-12-18T08:36:23;98165.00;;;-11.10
14784;BMP180;7483;50.498;12.138;2022-12-18T08:38:53;98189.00;;;-11.00
14784;BMP180;7483;50.498;12.138;2022-12-18T08:41:21;98190.00;;;-11.00
14784;BMP180;7483;50.498;12.138;2022-12-18T08:43:50;98159.00;;;-11.00
14784;BMP180;7483;50.498;12.138;2022-12-18T08:46:38;98156.00;;;-11.10
14784;BMP180;7483;50.498;12.138;2022-12-18T08:49:11;98164.00;;;-11.10
14784;BMP180;7483;50.498;12.138;2022-12-18T08:51:39;98131.00;;;-10.90
14784;BMP180;7483;50.498;12.138;2022-12-18T08:54:11;98174.00;;;-10.70
14784;BMP180;7483;50.498;12.138;2022-12-18T08:56:40;98162.00;;;-10.60
14784;BMP180;7483;50.498;12.138;2022-12-18T08:59:08;98185.00;;;-10.40
14784;BMP180;7483;50.498;12.138;2022-12-18T09:01:46;98108.00;;;-10.10
14784;BMP180;7483;50.498;12.138;2022-12-18T09:04:16;98198.00;;;-9.80
14784;BMP180;7483;50.498;12.138;2022-12-18T09:06:44;98203.00;;;-9.70
14784;BMP180;7483;50.498;12.138;2022-12-18T09:09:12;98203.00;;;-9.60
14784;BMP180;7483;50.498;12.138;2022-12-18T09:11:40;98173.00;;;-9.70
14784;BMP180;7483;50.498;12.138;2022-12-18T09:14:10;98184.00;;;-9.70
14784;BMP180;7483;50.498;12.138;2022-12-18T09:16:38;98181.00;;;-9.50
14784;BMP180;7483;50.498;12.138;2022-12-18T09:19:06;98179.00;;;-9.40
14784;BMP180;7483;50.498;12.138;2022-12-18T09:21:35;98193.00;;;-9.10
14784;BMP180;7483;50.498;12.138;2022-12-18T09:24:13;98086.00;;;-8.90
14784;BMP180;7483;50.498;12.138;2022-12-18T09:26:41;98176.00;;;-8.80
14784;BMP180;7483;50.498;12.138;2022-12-18T09:29:13;98188.00;;;-8.70
14784;BMP180;7483;50.498;12.138;2022-12-18T09:31:42;98161.00;;;-8.70
14784;BMP180;7483;50.498;12.138;2022-12-18T09:34:11;98176.00;;;-8.40
14784;BMP180;7483;50.498;12.138;2022-12-18T09:36:40;98166.00;;;-8.20
14784;BMP180;7483;50.498;12.138;2022-12-18T09:39:09;98177.00;;;-8.10
14784;BMP180;7483;50.498;12.138;2022-12-18T09:41:51;98203.00;;;-7.90
14784;BMP180;7483;50.498;12.138;2022-12-18T09:44:24;98226.00;;;-7.70
14784;BMP180;7483;50.498;12.138;2022-12-18T09:47:10;98203.00;;;-7.60
14784;BMP180;7483;50.498;12.138;2022-12-18T09:49:43;98192.00;;;-7.90
14784;BMP180;7483;50.498;12.138;2022-12-18T09:52:21;98202.00;;;-7.30
14784;BMP180;7483;50.498;12.138;2022-12-18T09:54:59;98210.00;;;-7.00
14784;BMP180;7483;50.498;12.138;2022-12-18T09:57:32;98105.00;;;-7.00
14784;BMP180;7483;50.498;12.138;2022-12-18T10:00:15;98219.00;;;-6.90
14784;BMP180;7483;50.498;12.138;2022-12-18T10:02:45;98183.00;;;-6.80
14784;BMP180;7483;50.498;12.138;2022-12-18T10:05:24;98178.00;;;-6.80
14784;BMP180;7483;50.498;12.138;2022-12-18T10:08:05;98189.00;;;-6.70
14784;BMP180;7483;50.498;12.138;2022-12-18T10:10:41;98177.00;;;-6.50
14784;BMP180;7483;50.498;12.138;2022-12-18T10:13:23;98114.00;;;-6.40
14784;BMP180;7483;50.498;12.138;2022-12-18T10:16:07;98187.00;;;-6.20
14784;BMP180;7483;50.498;12.138;2022-12-18T10:19:01;98168.00;;;-6.20
14784;BMP180;7483;50.498;12.138;2022-12-18T10:21:45;98173.00;;;-6.10
14784;BMP180;7483;50.498;12.138;2022-12-18T10:24:25;98176.00;;;-6.10
14784;BMP180;7483;50.498;12.138;2022-12-18T10:26:59;98176.00;;;-6.00
14784;BMP180;7483;50.498;12.138;2022-12-18T10:29:32;98173.00;;;-5.90
14784;BMP180;7483;50.498;12.138;2022-12-18T10:32:00;98182.00;;;-5.80
14784;BMP180;7483;50.498;12.138;2022-12-18T10:34:28;98182.00;;;-5.70
14784;BMP180;7483;50.498;12.138;2022-12-18T10:36:57;98175.00;;;-5.60
14784;BMP180;7483;50.498;12.138;2022-12-18T10:39:26;98175.00;;;-5.50
14784;BMP180;7483;50.498;12.138;2022-12-18T10:42:11;98177.00;;;-5.30
14784;BMP180;7483;50.498;12.138;2022-12-18T10:44:40;98170.00;;;-5.20
14784;BMP180;7483;50.498;12.138;2022-12-18T10:47:14;98168.00;;;-5.00
14784;BMP180;7483;50.498;12.138;2022-12-18T10:49:50;98194.00;;;-4.80
14784;BMP180;7483;50.498;12.138;2022-12-18T10:52:24;98211.00;;;-4.60
14784;BMP180;7483;50.498;12.138;2022-12-18T10:54:58;98186.00;;;-4.40
14784;BMP180;7483;50.498;12.138;2022-12-18T10:57:35;98181.00;;;-4.30
14784;BMP180;7483;50.498;12.138;2022-12-18T11:00:24;98177.00;;;-4.20
14784;BMP180;7483;50.498;12.138;2022-12-18T11:02:53;98186.00;;;-4.00
14784;BMP180;7483;50.498;12.138;2022-12-18T11:05:30;98194.00;;;-3.90
14784;BMP180;7483;50.498;12.138;2022-12-18T11:08:00;98203.00;;;-3.80
14784;BMP180;7483;50.498;12.138;2022-12-18T11:10:32;98191.00;;;-3.70
14784;BMP180;7483;50.498;12.138;2022-12-18T11:13:19;98187.00;;;-3.60
14784;BMP180;7483;50.498;12.138;2022-12-18T11:15:48;98180.00;;;-3.60
14784;BMP180;7483;50.498;12.138;2022-12-18T11:18:21;98191.00;;;-3.50
14784;BMP180;7483;50.498;12.138;2022-12-18T11:20:53;98191.00;;;-3.40
14784;BMP180;7483;50.498;12.138;2022-12-18T11:23:26;98186.00;;;-3.40
14784;BMP180;7483;50.498;12.138;2022-12-18T11:25:59;98196.00;;;-3.30
14784;BMP180;7483;50.498;12.138;2022-12-18T11:28:36;98211.00;;;-3.10
14784;BMP180;7483;50.498;12.138;2022-12-18T11:31:21;98211.00;;;-3.00
14784;BMP180;7483;50.498;12.138;2022-12-18T11:33:57;98219.00;;;-2.90
14784;BMP180;7483;50.498;12.138;2022-12-18T11:36:48;98212.00;;;-2.80
14784;BMP180;7483;50.498;12.138;2022-12-18T11:39:30;98222.00;;;-2.70
14784;BMP180;7483;50.498;12.138;2022-12-18T11:42:09;98204.00;;;-2.60
14784;BMP180;7483;50.498;12.138;2022-12-18T11:44:46;98221.00;;;-2.50
14784;BMP180;7483;50.498;12.138;2022-12-18T11:47:25;98206.00;;;-2.30
14784;BMP180;7483;50.498;12.138;2022-12-18T11:50:00;98204.00;;;-1.30
14784;BMP180;7483;50.498;12.138;2022-12-18T11:52:36;98234.00;;;1.40
14784;BMP180;7483;50.498;12.138;2022-12-18T11:55:12;98250.00;;;2.30
14784;BMP180;7483;50.498;12.138;2022-12-18T11:57:51;98246.00;;;2.60
14784;BMP180;7483;50.498;12.138;2022-12-18T12:00:23;98249.00;;;2.00
14784;BMP180;7483;50.498;12.138;2022-12-18T12:03:24;98240.00;;;2.20
14784;BMP180;7483;50.498;12.138;2022-12-18T12:06:08;98249.00;;;3.00
14784;BMP180;7483;50.498;12.138;2022-12-18T12:08:58;98251.00;;;2.90
14784;BMP180;7483;50.498;12.138;2022-12-18T12:11:42;98242.00;;;2.10
14784;BMP180;7483;50.498;12.138;2022-12-18T12:14:48;98234.00;;;2.80
14784;BMP180;7483;50.498;12.138;2022-12-18T12:17:32;98234.00;;;4.00
14784;BMP180;7483;50.498;12.138;2022-12-18T12:20:14;98215.00;;;4.20
14784;BMP180;7483;50.498;12.138;2022-12-18T12:22:55;98220.00;;;3.90
14784;BMP180;7483;50.498;12.138;2022-12-18T12:25:37;98195.00;;;3.10
14784;BMP180;7483;50.498;12.138;2022-12-18T12:28:22;98201.00;;;3.20
14784;BMP180;7483;50.498;12.138;2022-12-18T12:31:03;98204.00;;;3.30
14784;BMP180;7483;50.498;12.138;2022-12-18T12:33:47;98164.00;;;4.00
14784;BMP180;7483;50.498;12.138;2022-12-18T12:36:26;98167.00;;;4.60
14784;BMP180;7483;50.498;12.138;2022-12-18T12:39:06;98159.00;;;4.60
14784;BMP180;7483;50.498;12.138;2022-12-18T12:41:38;98162.00;;;4.50
14784;BMP180;7483;50.498;12.138;2022-12-18T12:44:29;98138.00;;;3.70
14784;BMP180;7483;50.498;12.138;2022-12-18T12:47:10;98163.00;;;3.80
14784;BMP180;7483;50.498;12.138;2022-12-18T12:49:43;98185.00;;;3.50
14784;BMP180;7483;50.498;12.138;2022-12-18T12:52:27;98181.00;;;2.60
14784;BMP180;7483;50.498;12.138;2022-12-18T12:54:57;98186.00;;;2.00
14784;BMP180;7483;50.498;12.138;2022-12-18T12:57:34;98200.00;;;1.90
14784;BMP180;7483;50.498;12.138;2022-12-18T13:00:09;98167.00;;;1.50
14784;BMP180;7483;50.498;12.138;2022-12-18T13:02:50;98203.00;;;1.50
14784;BMP180;7483;50.498;12.138;2022-12-18T13:05:25;98178.00;;;1.70
14784;BMP180;7483;50.498;12.138;2022-12-18T13:08:01;98201.00;;;1.60
14784;BMP180;7483;50.498;12.138;2022-12-18T13:10:35;98190.00;;;0.80
14784;BMP180;7483;50.498;12.138;2022-12-18T13:13:07;98199.00;;;0.60
14784;BMP180;7483;50.498;12.138;2022-12-18T13:15:42;98180.00;;;0.00
14784;BMP180;7483;50.498;12.138;2022-12-18T13:18:20;98131.00;;;-0.30
14784;BMP180;7483;50.498;12.138;2022-12-18T13:21:03;98189.00;;;-0.50
14784;BMP180;7483;50.498;12.138;2022-12-18T13:23:38;98182.00;;;-0.90
14784;BMP180;7483;50.498;12.138;2022-12-18T13:26:30;98170.00;;;-1.00
14784;BMP180;7483;50.498;12.138;2022-12-18T13:29:01;98170.00;;;-1.00
14784;BMP180;7483;50.498;12.138;2022-12-18T13:32:00;98182.00;;;-1.40
14784;BMP180;7483;50.498;12.138;2022-12-18T13:34:30;98166.00;;;-1.50
14784;BMP180;7483;50.498;12.138;2022-12-18T13:37:38;98045.00;;;-1.50
14784;BMP180;7483;50.498;12.138;2022-12-18T13:40:53;98177.00;;;-1.60
14784;BMP180;7483;50.498;12.138;2022-12-18T13:43:37;98165.00;;;-1.50
14784;BMP180;7483;50.498;12.138;2022-12-18T13:46:23;98186.00;;;-1.50
14784;BMP180;7483;50.498;12.138;2022-12-18T13:48:57;98160.00;;;-1.60
14784;BMP180;7483;50.498;12.138;2022-12-18T13:51:29;98173.00;;;-1.80
14784;BMP180;7483;50.498;12.138;2022-12-18T13:54:02;98203.00;;;-2.10
14784;BMP180;7483;50.498;12.138;2022-12-18T13:56:33;98154.00;;;-2.30
14784;BMP180;7483;50.498;12.138;2022-12-18T13:59:23;98156.00;;;-2.40
14784;BMP180;7483;50.498;12.138;2022-12-18T14:01:55;98091.00;;;-2.50
14784;BMP180;7483;50.498;12.138;2022-12-18T14:04:27;98164.00;;;-2.50
14784;BMP180;7483;50.498;12.138;2022-12-18T14:07:03;98163.00;;;-2.60
14784;BMP180;7483;50.498;12.138;2022-12-18T14:09:39;98148.00;;;-2.60
14784;BMP180;7483;50.498;12.138;2022-12-18T14:12:17;98138.00;;;-2.70
14784;BMP180;7483;50.498;12.138;2022-12-18T14:15:06;98125.00;;;-2.80
14784;BMP180;7483;50.498;12.138;2022-12-18T14:17:39;98136.00;;;-2.80
14784;BMP180;7483;50.498;12.138;2022-12-18T14:20:14;98126.00;;;-2.90
14784;BMP180;7483;50.498;12.138;2022-12-18T14:22:47;98100.00;;;-2.90
14784;BMP180;7483;50.498;12.138;2022-12-18T14:25:20;98134.00;;;-3.00
14784;BMP180;7483;50.498;12.138;2022-12-18T14:27:52;98137.00;;;-3.10
14784;BMP180;7483;50.498;12.138;2022-12-18T14:30:26;98131.00;;;-3.10
14784;BMP180;7483;50.498;12.138;2022-12-18T14:33:04;98127.00;;;-3.10
14784;BMP180;7483;50.498;12.138;2022-12-18T14:35:33;98120.00;;;-3.20
14784;BMP180;7483;50.498;12.138;2022-12-18T14:38:21;98124.00;;;-3.20